sensor_id;sensor_type;location;lat;lon;timestamp;pressure;altitude;pressure_sealevel;temperature;humidity
11525;BME280;5819;49.648;8.330;2023-02-28T01:23:57;101501.00;;;-0.36;77.88
11525;BME280;5819;49.648;8.330;2023-02-28T01:26:25;101498.69;;;-0.24;77.66
11525;BME280;5819;49.648;8.330;2023-02-28T01:28:53;101498.63;;;-0.28;77.85
11525;BME280;5819;49.648;8.330;2023-02-28T01:31:22;101495.22;;;-0.27;77.67
11525;BME280;5819;49.648;8.330;2023-02-28T01:33:50;101495.56;;;-0.11;77.17
11525;BME280;5819;49.648;8.330;2023-02-28T01:36:19;101496.75;;;-0.37;77.79
11525;BME280;5819;49.648;8.330;2023-02-28T01:38:47;101491.13;;;-0.19;78.27
11525;BME280;5819;49.648;8.330;2023-02-28T01:41:19;101495.78;;;-0.42;79.02
11525;BME280;5819;49.648;8.330;2023-02-28T01:43:56;101491.59;;;-0.38;78.65
11525;BME280;5819;49.648;8.330;2023-02-28T01:46:24;101499.91;;;-0.49;79.50
11525;BME280;5819;49.648;8.330;2023-02-28T01:48:54;101499.81;;;-0.52;79.76
11525;BME280;5819;49.648;8.330;2023-02-28T01:51:27;101495.47;;;-0.57;79.66
11525;BME280;5819;49.648;8.330;2023-02-28T01:53:59;101493.53;;;-0.69;80.21
11525;BME280;5819;49.648;8.330;2023-02-28T01:56:34;101486.03;;;-0.60;80.65
11525;BME280;5819;49.648;8.330;2023-02-28T01:59:04;101493.22;;;-0.82;80.57
11525;BME280;5819;49.648;8.330;2023-02-28T02:01:32;101478.09;;;-0.72;80.55
11525;BME280;5819;49.648;8.330;2023-02-28T02:04:02;101485.34;;;-0.53;79.99
11525;BME280;5819;49.648;8.330;2023-02-28T02:06:36;101476.56;;;-0.65;79.38
11525;BME280;5819;49.648;8.330;2023-02-28T02:09:09;101475.72;;;-0.64;80.37
11525;BME280;5819;49.648;8.330;2023-02-28T02:11:39;101479.63;;;-0.81;80.59
11525;BME280;5819;49.648;8.330;2023-02-28T02:14:26;101475.66;;;-0.67;80.43
11525;BME280;5819;49.648;8.330;2023-02-28T02:17:11;101473.84;;;-0.73;80.36
11525;BME280;5819;49.648;8.330;2023-02-28T02:20:31;101471.31;;;-0.71;80.63
11525;BME280;5819;49.648;8.330;2023-02-28T02:23:32;101473.09;;;-0.67;80.74
11525;BME280;5819;49.648;8.330;2023-02-28T02:26:30;101477.38;;;-0.66;79.65
11525;BME280;5819;49.648;8.330;2023-02-28T02:29:21;101463.84;;;-0.62;80.16
11525;BME280;5819;49.648;8.330;2023-02-28T02:32:18;101466.59;;;-0.53;80.72
11525;BME280;5819;49.648;8.330;2023-02-28T02:35:03;101464.78;;;-0.59;80.67
11525;BME280;5819;49.648;8.330;2023-02-28T02:37:39;101467.94;;;-0.70;80.43
11525;BME280;5819;49.648;8.330;2023-02-28T02:40:12;101459.56;;;-0.65;80.45
11525;BME280;5819;49.648;8.330;2023-02-28T02:42:47;101466.88;;;-0.80;80.95
11525;BME280;5819;49.648;8.330;2023-02-28T02:45:22;101463.28;;;-0.88;81.37
11525;BME280;5819;49.648;8.330;2023-02-28T02:47:53;101468.50;;;-0.83;81.85
11525;BME280;5819;49.648;8.330;2023-02-28T02:50:26;101464.97;;;-0.90;82.02
11525;BME280;5819;49.648;8.330;2023-02-28T02:52:59;101463.22;;;-0.91;81.80
11525;BME280;5819;49.648;8.330;2023-02-28T02:55:33;101458.22;;;-0.86;81.87
11525;BME280;5819;49.648;8.330;2023-02-28T02:58:04;101461.75;;;-0.81;82.41
11525;BME280;5819;49.648;8.330;2023-02-28T03:00:37;101457.00;;;-0.63;81.17
11525;BME280;5819;49.648;8.330;2023-02-28T03:03:10;101464.31;;;-0.81;82.41
11525;BME280;5819;49.648;8.330;2023-02-28T03:05:44;101459.91;;;-0.87;82.16
11525;BME280;5819;49.648;8.330;2023-02-28T03:08:14;101467.56;;;-0.87;82.24
11525;BME280;5819;49.648;8.330;2023-02-28T03:10:44;101465.16;;;-0.81;82.35
11525;BME280;5819;49.648;8.330;2023-02-28T03:13:36;101467.97;;;-0.69;81.82
11525;BME280;5819;49.648;8.330;2023-02-28T03:16:21;101462.00;;;-0.69;81.49
11525;BME280;5819;49.648;8.330;2023-02-28T03:18:58;101466.97;;;-0.75;82.30
11525;BME280;5819;49.648;8.330;2023-02-28T03:21:36;101469.13;;;-0.93;82.53
11525;BME280;5819;49.648;8.330;2023-02-28T03:24:10;101465.81;;;-0.89;82.06
11525;BME280;5819;49.648;8.330;2023-02-28T03:26:43;101463.78;;;-0.65;82.06
11525;BME280;5819;49.648;8.330;2023-02-28T03:29:17;101474.19;;;-0.97;83.03
11525;BME280;5819;49.648;8.330;2023-02-28T03:31:50;101462.00;;;-0.69;82.94
11525;BME280;5819;49.648;8.330;2023-02-28T03:34:24;101466.88;;;-0.80;81.89
11525;BME280;5819;49.648;8.330;2023-02-28T03:36:58;101468.31;;;-0.92;82.96
11525;BME280;5819;49.648;8.330;2023-02-28T03:39:29;101464.72;;;-1.01;83.07
11525;BME280;5819;49.648;8.330;2023-02-28T03:42:01;101459.75;;;-0.95;82.88
11525;BME280;5819;49.648;8.330;2023-02-28T03:44:34;101465.56;;;-1.00;83.45
11525;BME280;5819;49.648;8.330;2023-02-28T03:47:08;101457.94;;;-0.99;83.01
11525;BME280;5819;49.648;8.330;2023-02-28T03:49:41;101462.31;;;-0.95;83.29
11525;BME280;5819;49.648;8.330;2023-02-28T03:52:14;101464.03;;;-0.92;83.50
11525;BME280;5819;49.648;8.330;2023-02-28T03:54:48;101466.31;;;-1.06;83.34
11525;BME280;5819;49.648;8.330;2023-02-28T03:57:22;101471.53;;;-1.00;83.14
11525;BME280;5819;49.648;8.330;2023-02-28T03:59:57;101476.47;;;-1.07;83.97
11525;BME280;5819;49.648;8.330;2023-02-28T04:02:31;101480.97;;;-0.97;84.22
11525;BME280;5819;49.648;8.330;2023-02-28T04:05:00;101481.41;;;-1.15;84.04
11525;BME280;5819;49.648;8.330;2023-02-28T04:07:30;101488.19;;;-1.17;84.35
11525;BME280;5819;49.648;8.330;2023-02-28T04:09:59;101479.19;;;-1.00;84.08
11525;BME280;5819;49.648;8.330;2023-02-28T04:12:27;101476.31;;;-1.15;84.27
11525;BME280;5819;49.648;8.330;2023-02-28T04:14:54;101479.78;;;-1.11;84.93
11525;BME280;5819;49.648;8.330;2023-02-28T04:17:22;101484.59;;;-1.25;85.43
11525;BME280;5819;49.648;8.330;2023-02-28T04:19:50;101480.69;;;-1.09;84.87
11525;BME280;5819;49.648;8.330;2023-02-28T04:22:17;101472.47;;;-0.98;84.97
11525;BME280;5819;49.648;8.330;2023-02-28T04:24:47;101471.34;;;-1.09;84.65
11525;BME280;5819;49.648;8.330;2023-02-28T04:27:15;101472.47;;;-0.96;84.91
11525;BME280;5819;49.648;8.330;2023-02-28T04:29:43;101475.00;;;-0.98;84.21
11525;BME280;5819;49.648;8.330;2023-02-28T04:32:12;101467.44;;;-0.93;83.56
11525;BME280;5819;49.648;8.330;2023-02-28T04:34:40;101461.59;;;-0.87;83.02
11525;BME280;5819;49.648;8.330;2023-02-28T04:37:08;101462.44;;;-0.88;83.87
11525;BME280;5819;49.648;8.330;2023-02-28T04:39:40;101468.09;;;-1.02;84.11
11525;BME280;5819;49.648;8.330;2023-02-28T04:42:10;101466.03;;;-0.79;83.24
11525;BME280;5819;49.648;8.330;2023-02-28T04:44:39;101461.97;;;-1.10;84.45
11525;BME280;5819;49.648;8.330;2023-02-28T04:47:07;101460.00;;;-1.21;84.70
11525;BME280;5819;49.648;8.330;2023-02-28T04:49:35;101461.69;;;-1.22;84.68
11525;BME280;5819;49.648;8.330;2023-02-28T04:52:03;101463.59;;;-1.12;84.99
11525;BME280;5819;49.648;8.330;2023-02-28T04:54:31;101464.59;;;-1.07;84.56
11525;BME280;5819;49.648;8.330;2023-02-28T04:56:59;101468.75;;;-1.10;84.27
11525;BME280;5819;49.648;8.330;2023-02-28T04:59:29;101464.72;;;-1.01;85.08
11525;BME280;5819;49.648;8.330;2023-02-28T05:01:57;101467.84;;;-1.12;84.29
11525;BME280;5819;49.648;8.330;2023-02-28T05:04:24;101474.44;;;-1.22;85.29
11525;BME280;5819;49.648;8.330;2023-02-28T05:06:53;101475.50;;;-1.12;84.79
11525;BME280;5819;49.648;8.330;2023-02-28T05:09:21;101473.91;;;-1.09;84.97
11525;BME280;5819;49.648;8.330;2023-02-28T05:11:49;101476.31;;;-1.15;85.41
11525;BME280;5819;49.648;8.330;2023-02-28T05:14:17;101476.06;;;-0.88;85.41
11525;BME280;5819;49.648;8.330;2023-02-28T05:16:47;101472.34;;;-1.02;84.44
11525;BME280;5819;49.648;8.330;2023-02-28T05:19:15;101474.38;;;-1.25;85.45
11525;BME280;5819;49.648;8.330;2023-02-28T05:21:49;101476.53;;;-1.04;85.75
11525;BME280;5819;49.648;8.330;2023-02-28T05:24:19;101487.59;;;-1.41;85.93
11525;BME280;5819;49.648;8.330;2023-02-28T05:26:50;101486.09;;;-1.33;86.82
11525;BME280;5819;49.648;8.330;2023-02-28T05:29:20;101482.91;;;-1.23;86.23
11525;BME280;5819;49.648;8.330;2023-02-28T05:31:49;101485.06;;;-1.41;87.30
11525;BME280;5819;49.648;8.330;2023-02-28T05:34:17;101478.28;;;-1.39;86.86
11525;BME280;5819;49.648;8.330;2023-02-28T05:36:45;101487.97;;;-1.26;87.00
11525;BME280;5819;49.648;8.330;2023-02-28T05:39:13;101490.34;;;-1.32;86.72
11525;BME280;5819;49.648;8.330;2023-02-28T05:41:42;101482.28;;;-1.14;86.74
11525;BME280;5819;49.648;8.330;2023-02-28T05:44:10;101498.56;;;-1.45;87.30
11525;BME280;5819;49.648;8.330;2023-02-28T05:46:39;101498.44;;;-1.50;87.61
11525;BME280;5819;49.648;8.330;2023-02-28T05:49:08;101491.97;;;-1.35;87.15
11525;BME280;5819;49.648;8.330;2023-02-28T05:51:36;101499.31;;;-1.48;87.86
11525;BME280;5819;49.648;8.330;2023-02-28T05:54:06;101500.19;;;-1.49;87.82
11525;BME280;5819;49.648;8.330;2023-02-28T05:56:34;101502.78;;;-1.46;88.78
11525;BME280;5819;49.648;8.330;2023-02-28T05:59:04;101504.63;;;-1.40;88.79
11525;BME280;5819;49.648;8.330;2023-02-28T06:01:33;101502.56;;;-1.55;89.35
11525;BME280;5819;49.648;8.330;2023-02-28T06:04:03;101502.69;;;-1.50;88.78
11525;BME280;5819;49.648;8.330;2023-02-28T06:06:33;101507.97;;;-1.43;89.46
11525;BME280;5819;49.648;8.330;2023-02-28T06:09:03;101516.88;;;-1.60;89.85
11525;BME280;5819;49.648;8.330;2023-02-28T06:11:32;101513.56;;;-1.56;89.11
11525;BME280;5819;49.648;8.330;2023-02-28T06:14:00;101515.38;;;-1.52;89.80
11525;BME280;5819;49.648;8.330;2023-02-28T06:16:29;101509.47;;;-1.51;89.53
11525;BME280;5819;49.648;8.330;2023-02-28T06:18:58;101522.06;;;-1.57;89.66
11525;BME280;5819;49.648;8.330;2023-02-28T06:21:27;101526.44;;;-1.51;90.05
11525;BME280;5819;49.648;8.330;2023-02-28T06:23:58;101520.41;;;-1.55;90.12
11525;BME280;5819;49.648;8.330;2023-02-28T06:26:26;101519.66;;;-1.51;89.99
11525;BME280;5819;49.648;8.330;2023-02-28T06:28:55;101518.22;;;-1.41;90.46
11525;BME280;5819;49.648;8.330;2023-02-28T06:31:23;101523.09;;;-1.50;90.32
11525;BME280;5819;49.648;8.330;2023-02-28T06:33:52;101522.28;;;-1.49;89.55
11525;BME280;5819;49.648;8.330;2023-02-28T06:36:20;101526.63;;;-1.45;89.47
11525;BME280;5819;49.648;8.330;2023-02-28T06:38:48;101526.69;;;-1.42;89.27
11525;BME280;5819;49.648;8.330;2023-02-28T06:41:23;101530.38;;;-1.31;87.98
11525;BME280;5819;49.648;8.330;2023-02-28T06:43:52;101530.44;;;-0.92;87.00
11525;BME280;5819;49.648;8.330;2023-02-28T06:46:21;101533.38;;;-1.13;86.75
11525;BME280;5819;49.648;8.330;2023-02-28T06:48:49;101527.72;;;-1.00;86.28
11525;BME280;5819;49.648;8.330;2023-02-28T06:51:19;101531.94;;;-1.02;86.84
11525;BME280;5819;49.648;8.330;2023-02-28T06:53:48;101532.97;;;-0.93;86.38
11525;BME280;5819;49.648;8.330;2023-02-28T06:56:17;101537.69;;;-1.10;86.96
11525;BME280;5819;49.648;8.330;2023-02-28T06:58:49;101541.16;;;-1.07;87.32
11525;BME280;5819;49.648;8.330;2023-02-28T07:01:19;101547.97;;;-1.07;87.03
11525;BME280;5819;49.648;8.330;2023-02-28T07:03:49;101546.59;;;-0.93;86.90
11525;BME280;5819;49.648;8.330;2023-02-28T07:06:18;101553.06;;;-1.07;86.73
11525;BME280;5819;49.648;8.330;2023-02-28T07:08:47;101549.34;;;-1.20;87.74
11525;BME280;5819;49.648;8.330;2023-02-28T07:11:15;101548.41;;;-1.25;88.44
11525;BME280;5819;49.648;8.330;2023-02-28T07:13:43;101554.63;;;-1.14;88.08
11525;BME280;5819;49.648;8.330;2023-02-28T07:16:12;101554.34;;;-0.90;86.69
11525;BME280;5819;49.648;8.330;2023-02-28T07:18:40;101563.16;;;-1.12;86.99
11525;BME280;5819;49.648;8.330;2023-02-28T07:21:09;101554.16;;;-0.96;87.20
11525;BME280;5819;49.648;8.330;2023-02-28T07:23:38;101557.75;;;-0.89;86.92
11525;BME280;5819;49.648;8.330;2023-02-28T07:26:11;101550.81;;;-0.95;87.40
11525;BME280;5819;49.648;8.330;2023-02-28T07:28:42;101560.00;;;-1.02;87.04
11525;BME280;5819;49.648;8.330;2023-02-28T07:31:12;101565.22;;;-0.97;86.70
11525;BME280;5819;49.648;8.330;2023-02-28T07:33:43;101557.84;;;-0.48;85.27
11525;BME280;5819;49.648;8.330;2023-02-28T07:36:14;101548.97;;;-0.63;84.91
11525;BME280;5819;49.648;8.330;2023-02-28T07:38:47;101552.78;;;-0.46;83.87
11525;BME280;5819;49.648;8.330;2023-02-28T07:41:18;101546.03;;;-0.42;83.10
11525;BME280;5819;49.648;8.330;2023-02-28T07:43:47;101559.47;;;-0.51;84.16
11525;BME280;5819;49.648;8.330;2023-02-28T07:46:17;101545.28;;;0.05;81.98
11525;BME280;5819;49.648;8.330;2023-02-28T07:48:49;101556.19;;;-0.05;82.37
11525;BME280;5819;49.648;8.330;2023-02-28T07:51:18;101549.53;;;0.05;81.65
11525;BME280;5819;49.648;8.330;2023-02-28T07:53:49;101548.22;;;0.25;80.61
11525;BME280;5819;49.648;8.330;2023-02-28T07:56:19;101551.66;;;0.25;80.81
11525;BME280;5819;49.648;8.330;2023-02-28T07:58:56;101551.56;;;0.19;79.37
11525;BME280;5819;49.648;8.330;2023-02-28T08:01:39;101548.31;;;0.28;78.82
11525;BME280;5819;49.648;8.330;2023-02-28T08:04:13;101553.56;;;0.37;79.38
11525;BME280;5819;49.648;8.330;2023-02-28T08:06:44;101556.31;;;0.46;79.03
11525;BME280;5819;49.648;8.330;2023-02-28T08:09:15;101554.66;;;0.50;78.65
11525;BME280;5819;49.648;8.330;2023-02-28T08:11:47;101551.41;;;0.58;78.53
11525;BME280;5819;49.648;8.330;2023-02-28T08:14:20;101546.72;;;0.85;76.94
11525;BME280;5819;49.648;8.330;2023-02-28T08:16:51;101554.38;;;0.82;77.92
11525;BME280;5819;49.648;8.330;2023-02-28T08:19:20;101549.69;;;1.10;76.94
11525;BME280;5819;49.648;8.330;2023-02-28T08:21:51;101544.59;;;1.13;75.94
11525;BME280;5819;49.648;8.330;2023-02-28T08:24:30;101545.28;;;1.00;75.57
11525;BME280;5819;49.648;8.330;2023-02-28T08:27:09;101542.06;;;1.14;74.49
11525;BME280;5819;49.648;8.330;2023-02-28T08:29:44;101534.59;;;1.28;75.44
11525;BME280;5819;49.648;8.330;2023-02-28T08:32:14;101527.22;;;1.51;74.04
11525;BME280;5819;49.648;8.330;2023-02-28T08:34:56;101529.34;;;1.83;73.33
11525;BME280;5819;49.648;8.330;2023-02-28T08:37:25;101524.34;;;1.93;71.95
11525;BME280;5819;49.648;8.330;2023-02-28T08:39:54;101528.00;;;2.16;71.69
11525;BME280;5819;49.648;8.330;2023-02-28T08:42:23;101515.28;;;2.26;70.52
11525;BME280;5819;49.648;8.330;2023-02-28T08:44:58;101518.97;;;2.57;70.25
11525;BME280;5819;49.648;8.330;2023-02-28T08:47:33;101514.41;;;2.26;70.44
11525;BME280;5819;49.648;8.330;2023-02-28T08:50:04;101510.28;;;2.40;70.62
11525;BME280;5819;49.648;8.330;2023-02-28T08:52:36;101517.84;;;2.26;69.35
11525;BME280;5819;49.648;8.330;2023-02-28T08:55:08;101514.53;;;2.38;69.34
11525;BME280;5819;49.648;8.330;2023-02-28T08:57:38;101520.47;;;2.31;70.66
11525;BME280;5819;49.648;8.330;2023-02-28T09:00:11;101517.94;;;2.37;70.60
11525;BME280;5819;49.648;8.330;2023-02-28T09:02:41;101517.25;;;2.52;69.35
11525;BME280;5819;49.648;8.330;2023-02-28T09:05:10;101521.19;;;2.21;68.59
11525;BME280;5819;49.648;8.330;2023-02-28T09:07:39;101522.84;;;2.14;70.31
11525;BME280;5819;49.648;8.330;2023-02-28T09:10:09;101521.38;;;2.36;69.90
11525;BME280;5819;49.648;8.330;2023-02-28T09:12:39;101518.69;;;2.24;69.94
11525;BME280;5819;49.648;8.330;2023-02-28T09:15:08;101521.38;;;2.38;70.27
11525;BME280;5819;49.648;8.330;2023-02-28T09:17:39;101519.81;;;2.52;68.60
11525;BME280;5819;49.648;8.330;2023-02-28T09:20:11;101513.75;;;2.44;68.57
11525;BME280;5819;49.648;8.330;2023-02-28T09:22:39;101513.94;;;2.66;68.68
11525;BME280;5819;49.648;8.330;2023-02-28T09:25:07;101513.13;;;2.73;68.57
11525;BME280;5819;49.648;8.330;2023-02-28T09:27:35;101505.44;;;2.72;67.82
11525;BME280;5819;49.648;8.330;2023-02-28T09:30:04;101505.38;;;2.66;68.84
11525;BME280;5819;49.648;8.330;2023-02-28T09:32:32;101503.81;;;2.86;67.22
11525;BME280;5819;49.648;8.330;2023-02-28T09:34:59;101503.81;;;2.86;66.55
11525;BME280;5819;49.648;8.330;2023-02-28T09:37:28;101505.63;;;2.96;66.96
11525;BME280;5819;49.648;8.330;2023-02-28T09:39:59;101498.75;;;2.98;65.46
11525;BME280;5819;49.648;8.330;2023-02-28T09:42:31;101497.91;;;2.98;65.46
11525;BME280;5819;49.648;8.330;2023-02-28T09:45:01;101494.47;;;2.93;64.54
11525;BME280;5819;49.648;8.330;2023-02-28T09:47:34;101497.09;;;3.06;64.82
11525;BME280;5819;49.648;8.330;2023-02-28T09:50:14;101498.06;;;3.25;64.97
11525;BME280;5819;49.648;8.330;2023-02-28T09:52:47;101498.13;;;3.34;64.90
11525;BME280;5819;49.648;8.330;2023-02-28T09:55:20;101495.50;;;3.22;64.26
11525;BME280;5819;49.648;8.330;2023-02-28T09:57:51;101493.75;;;3.15;66.14
11525;BME280;5819;49.648;8.330;2023-02-28T10:00:22;101488.84;;;3.63;64.34
11525;BME280;5819;49.648;8.330;2023-02-28T10:03:08;101491.41;;;3.59;64.17
11525;BME280;5819;49.648;8.330;2023-02-28T10:05:43;101494.81;;;3.56;63.99
11525;BME280;5819;49.648;8.330;2023-02-28T10:08:19;101483.75;;;3.75;63.74
11525;BME280;5819;49.648;8.330;2023-02-28T10:10:55;101483.03;;;4.28;63.25
11525;BME280;5819;49.648;8.330;2023-02-28T10:13:27;101479.59;;;4.58;63.78
11525;BME280;5819;49.648;8.330;2023-02-28T10:16:05;101468.44;;;4.71;62.55
11525;BME280;5819;49.648;8.330;2023-02-28T10:18:41;101465.81;;;4.98;62.35
11525;BME280;5819;49.648;8.330;2023-02-28T10:21:19;101455.53;;;5.01;59.36
11525;BME280;5819;49.648;8.330;2023-02-28T10:23:56;101455.50;;;5.07;59.77
11525;BME280;5819;49.648;8.330;2023-02-28T10:26:28;101449.50;;;4.96;58.81
11525;BME280;5819;49.648;8.330;2023-02-28T10:28:58;101454.69;;;4.81;59.98
11525;BME280;5819;49.648;8.330;2023-02-28T10:31:26;101447.78;;;4.91;58.38
11525;BME280;5819;49.648;8.330;2023-02-28T10:33:55;101438.34;;;4.91;58.32
11525;BME280;5819;49.648;8.330;2023-02-28T10:36:23;101449.56;;;4.69;57.62
11525;BME280;5819;49.648;8.330;2023-02-28T10:38:53;101443.53;;;4.76;57.77
11525;BME280;5819;49.648;8.330;2023-02-28T10:41:30;101438.34;;;5.00;57.09
11525;BME280;5819;49.648;8.330;2023-02-28T10:44:17;101435.81;;;4.64;57.48
11525;BME280;5819;49.648;8.330;2023-02-28T10:46:48;101439.22;;;4.87;57.31
11525;BME280;5819;49.648;8.330;2023-02-28T10:49:19;101430.66;;;4.76;55.97
11525;BME280;5819;49.648;8.330;2023-02-28T10:51:52;101432.34;;;4.83;57.34
11525;BME280;5819;49.648;8.330;2023-02-28T10:54:26;101434.09;;;4.57;56.93
11525;BME280;5819;49.648;8.330;2023-02-28T10:57:06;101428.94;;;4.77;55.91
11525;BME280;5819;49.648;8.330;2023-02-28T10:59:35;101423.72;;;4.98;55.27
11525;BME280;5819;49.648;8.330;2023-02-28T11:02:31;101424.59;;;5.00;56.31
11525;BME280;5819;49.648;8.330;2023-02-28T11:05:27;101427.13;;;5.15;55.55
11525;BME280;5819;49.648;8.330;2023-02-28T11:07:57;101421.06;;;5.27;54.73
11525;BME280;5819;49.648;8.330;2023-02-28T11:10:30;101421.06;;;5.33;55.27
11525;BME280;5819;49.648;8.330;2023-02-28T11:13:01;101413.22;;;5.52;54.42
11525;BME280;5819;49.648;8.330;2023-02-28T11:15:32;101407.16;;;5.58;53.65
11525;BME280;5819;49.648;8.330;2023-02-28T11:18:02;101421.94;;;5.19;54.86
11525;BME280;5819;49.648;8.330;2023-02-28T11:20:33;101412.38;;;5.53;54.85
11525;BME280;5819;49.648;8.330;2023-02-28T11:23:03;101405.41;;;5.64;52.81
11525;BME280;5819;49.648;8.330;2023-02-28T11:25:35;101401.06;;;5.73;53.38
11525;BME280;5819;49.648;8.330;2023-02-28T11:28:05;101412.25;;;5.73;54.00
11525;BME280;5819;49.648;8.330;2023-02-28T11:30:35;101407.16;;;5.55;53.50
11525;BME280;5819;49.648;8.330;2023-02-28T11:33:25;101404.59;;;5.61;54.88
11525;BME280;5819;49.648;8.330;2023-02-28T11:35:57;101402.81;;;5.66;54.46
11525;BME280;5819;49.648;8.330;2023-02-28T11:38:27;101405.44;;;5.61;54.58
11525;BME280;5819;49.648;8.330;2023-02-28T11:41:16;101394.91;;;6.01;54.13
11525;BME280;5819;49.648;8.330;2023-02-28T11:44:00;101400.31;;;5.52;52.26
11525;BME280;5819;49.648;8.330;2023-02-28T11:46:35;101389.78;;;5.86;51.95
11525;BME280;5819;49.648;8.330;2023-02-28T11:49:18;101394.88;;;6.04;52.38
11525;BME280;5819;49.648;8.330;2023-02-28T11:51:50;101404.25;;;6.14;53.63
11525;BME280;5819;49.648;8.330;2023-02-28T11:54:31;101389.03;;;5.72;52.27
11525;BME280;5819;49.648;8.330;2023-02-28T11:57:16;101393.19;;;5.94;53.63
11525;BME280;5819;49.648;8.330;2023-02-28T11:59:54;101377.75;;;5.91;51.70
11525;BME280;5819;49.648;8.330;2023-02-28T12:02:49;101368.78;;;6.37;51.51
11525;BME280;5819;49.648;8.330;2023-02-28T12:05:29;101369.44;;;6.56;52.63
11525;BME280;5819;49.648;8.330;2023-02-28T12:08:06;101386.72;;;6.52;53.53
11525;BME280;5819;49.648;8.330;2023-02-28T12:10:53;101367.44;;;6.82;53.35
11525;BME280;5819;49.648;8.330;2023-02-28T12:13:33;101349.66;;;7.30;50.13
11525;BME280;5819;49.648;8.330;2023-02-28T12:16:27;101360.75;;;7.38;50.01
11525;BME280;5819;49.648;8.330;2023-02-28T12:19:09;101359.00;;;7.38;51.01
11525;BME280;5819;49.648;8.330;2023-02-28T12:21:49;101351.50;;;7.20;50.66
11525;BME280;5819;49.648;8.330;2023-02-28T12:24:47;101357.88;;;6.92;51.31
11525;BME280;5819;49.648;8.330;2023-02-28T12:27:21;101356.41;;;7.40;51.71
11525;BME280;5819;49.648;8.330;2023-02-28T12:29:57;101388.97;;;7.58;50.44
11525;BME280;5819;49.648;8.330;2023-02-28T12:32:30;101392.44;;;7.57;50.09
11525;BME280;5819;49.648;8.330;2023-02-28T12:35:04;101381.91;;;7.69;48.79
11525;BME280;5819;49.648;8.330;2023-02-28T12:37:39;101384.28;;;7.20;49.46
11525;BME280;5819;49.648;8.330;2023-02-28T12:40:12;101390.34;;;7.17;49.58
11525;BME280;5819;49.648;8.330;2023-02-28T12:42:43;101392.50;;;7.52;49.73
11525;BME280;5819;49.648;8.330;2023-02-28T12:45:18;101385.47;;;7.60;48.79
11525;BME280;5819;49.648;8.330;2023-02-28T12:47:50;101389.13;;;7.45;49.64
11525;BME280;5819;49.648;8.330;2023-02-28T12:50:22;101392.38;;;7.61;49.35
11525;BME280;5819;49.648;8.330;2023-02-28T12:52:56;101389.50;;;7.15;49.71
11525;BME280;5819;49.648;8.330;2023-02-28T12:55:33;101393.59;;;7.31;50.48
11525;BME280;5819;49.648;8.330;2023-02-28T12:58:10;101392.13;;;7.12;49.96
11525;BME280;5819;49.648;8.330;2023-02-28T13:00:55;101377.06;;;7.46;49.60
11525;BME280;5819;49.648;8.330;2023-02-28T13:03:45;101379.81;;;7.34;49.85
11525;BME280;5819;49.648;8.330;2023-02-28T13:06:26;101385.22;;;7.13;50.63
11525;BME280;5819;49.648;8.330;2023-02-28T13:09:02;101373.50;;;7.51;50.65
11525;BME280;5819;49.648;8.330;2023-02-28T13:11:33;101378.31;;;7.13;50.79
11525;BME280;5819;49.648;8.330;2023-02-28T13:14:03;101381.56;;;7.29;50.92
11525;BME280;5819;49.648;8.330;2023-02-28T13:16:54;101386.22;;;7.01;49.83
11525;BME280;5819;49.648;8.330;2023-02-28T13:19:24;101382.09;;;6.85;50.63
11525;BME280;5819;49.648;8.330;2023-02-28T13:21:53;101381.88;;;7.04;50.58
11525;BME280;5819;49.648;8.330;2023-02-28T13:24:43;101384.88;;;7.41;50.03
11525;BME280;5819;49.648;8.330;2023-02-28T13:27:21;101381.53;;;7.33;50.77
11525;BME280;5819;49.648;8.330;2023-02-28T13:29:52;101377.81;;;7.52;49.58
11525;BME280;5819;49.648;8.330;2023-02-28T13:32:42;101373.44;;;7.58;49.87
11525;BME280;5819;49.648;8.330;2023-02-28T13:38:16;101379.50;;;7.55;50.34
11525;BME280;5819;49.648;8.330;2023-02-28T13:40:44;101374.19;;;7.66;49.76
11525;BME280;5819;49.648;8.330;2023-02-28T13:43:17;101381.16;;;7.61;51.73
11525;BME280;5819;49.648;8.330;2023-02-28T13:46:11;101378.72;;;7.48;49.09
11525;BME280;5819;49.648;8.330;2023-02-28T13:48:41;101381.47;;;7.38;50.51
11525;BME280;5819;49.648;8.330;2023-02-28T13:51:38;101379.66;;;7.44;50.10
11525;BME280;5819;49.648;8.330;2023-02-28T13:54:29;101375.50;;;7.33;50.38
11525;BME280;5819;49.648;8.330;2023-02-28T13:57:11;101378.41;;;7.04;49.44
11525;BME280;5819;49.648;8.330;2023-02-28T14:00:05;101389.03;;;6.78;50.55
11525;BME280;5819;49.648;8.330;2023-02-28T14:02:54;101394.50;;;6.46;51.56
11525;BME280;5819;49.648;8.330;2023-02-28T14:05:27;101381.41;;;6.69;50.97
11525;BME280;5819;49.648;8.330;2023-02-28T14:07:57;101383.03;;;6.78;52.23
11525;BME280;5819;49.648;8.330;2023-02-28T14:10:28;101389.22;;;6.62;52.76
11525;BME280;5819;49.648;8.330;2023-02-28T14:13:12;101381.31;;;6.77;52.72
11525;BME280;5819;49.648;8.330;2023-02-28T14:15:44;101391.78;;;6.63;53.32
11525;BME280;5819;49.648;8.330;2023-02-28T14:18:18;101381.31;;;6.77;51.89
11525;BME280;5819;49.648;8.330;2023-02-28T14:20:55;101377.22;;;6.54;52.51
11525;BME280;5819;49.648;8.330;2023-02-28T14:23:35;101382.38;;;6.56;52.16
11525;BME280;5819;49.648;8.330;2023-02-28T14:26:12;101380.41;;;6.79;52.19
11525;BME280;5819;49.648;8.330;2023-02-28T14:28:53;101369.34;;;6.67;52.14
11525;BME280;5819;49.648;8.330;2023-02-28T14:31:25;101378.94;;;6.55;52.30
11525;BME280;5819;49.648;8.330;2023-02-28T14:34:13;101378.00;;;6.63;52.12
11525;BME280;5819;49.648;8.330;2023-02-28T14:36:47;101379.59;;;6.77;51.49
11525;BME280;5819;49.648;8.330;2023-02-28T14:39:21;101372.56;;;6.88;51.93
11525;BME280;5819;49.648;8.330;2023-02-28T14:41:49;101375.28;;;6.78;50.52
11525;BME280;5819;49.648;8.330;2023-02-28T14:44:21;101377.25;;;6.50;51.94
11525;BME280;5819;49.648;8.330;2023-02-28T14:46:52;101373.75;;;6.55;50.85
11525;BME280;5819;49.648;8.330;2023-02-28T14:49:27;101383.41;;;6.37;51.87
11525;BME280;5819;49.648;8.330;2023-02-28T14:52:06;101374.81;;;6.36;50.46
11525;BME280;5819;49.648;8.330;2023-02-28T14:54:36;101377.38;;;6.36;50.72
11525;BME280;5819;49.648;8.330;2023-02-28T14:57:19;101375.66;;;6.37;53.05
11525;BME280;5819;49.648;8.330;2023-02-28T14:59:57;101374.84;;;6.30;51.06
11525;BME280;5819;49.648;8.330;2023-02-28T15:02:33;101373.75;;;6.54;51.87
11525;BME280;5819;49.648;8.330;2023-02-28T15:05:25;101379.19;;;6.28;51.28